createdAt,value
2023-02-11T00:00:07.587Z,1034.81
2023-02-11T00:00:37.666Z,1034.61
2023-02-11T00:01:08.729Z,1034.61
2023-02-11T00:01:39.874Z,1034.61
2023-02-11T00:02:10.812Z,1034.61
2023-02-11T00:02:41.702Z,1034.51
2023-02-11T00:03:12.668Z,1034.51
2023-02-11T00:03:45.574Z,1034.91
2023-02-11T00:04:14.571Z,1034.91
2023-02-11T00:04:47.021Z,1034.91
2023-02-11T00:05:17.318Z,1034.91
2023-02-11T00:05:49.329Z,1034.71
2023-02-11T00:06:18.498Z,1034.71
2023-02-11T00:06:49.620Z,1034.71
2023-02-11T00:07:20.985Z,1034.71
2023-02-11T00:07:51.947Z,1034.91
2023-02-11T00:08:22.569Z,1034.91
2023-02-11T00:08:53.574Z,1034.91
2023-02-11T00:09:24.928Z,1034.91
2023-02-11T00:09:55.702Z,1034.81
2023-02-11T00:10:27.299Z,1034.81
2023-02-11T00:10:57.930Z,1034.81
2023-02-11T00:11:28.773Z,1034.71
2023-02-11T00:11:59.588Z,1034.71
2023-02-11T00:12:31.179Z,1034.71
2023-02-11T00:13:01.933Z,1034.71
2023-02-11T00:13:33.155Z,1034.81
2023-02-11T00:14:03.560Z,1034.81
2023-02-11T00:14:34.980Z,1034.81
2023-02-11T00:15:06.788Z,1034.81
2023-02-11T00:15:37.056Z,1034.81
2023-02-11T00:16:07.840Z,1034.81
2023-02-11T00:16:38.980Z,1034.81
2023-02-11T00:17:09.974Z,1034.81
2023-02-11T00:17:40.958Z,1034.91
2023-02-11T00:18:11.588Z,1034.91
2023-02-11T00:18:42.741Z,1034.81
2023-02-11T00:19:13.858Z,1034.81
2023-02-11T00:19:45.040Z,1035.01
2023-02-11T00:20:16.455Z,1035.01
2023-02-11T00:20:46.914Z,1034.71
2023-02-11T00:21:17.535Z,1034.71
2023-02-11T00:21:48.956Z,1034.71
2023-02-11T00:22:19.813Z,1034.71
2023-02-11T00:22:50.522Z,1034.61
2023-02-11T00:23:21.619Z,1034.61
2023-02-11T00:23:53.127Z,1034.61
2023-02-11T00:24:23.612Z,1034.61
2023-02-11T00:24:54.584Z,1034.81
2023-02-11T00:25:26.469Z,1034.81
2023-02-11T00:25:56.556Z,1034.81
2023-02-11T00:26:27.905Z,1034.81
2023-02-11T00:26:58.539Z,1034.81
2023-02-11T00:27:29.873Z,1035.12
2023-02-11T00:28:01.041Z,1035.12
2023-02-11T00:28:32.032Z,1034.81
2023-02-11T00:29:02.532Z,1034.81
2023-02-11T00:29:34.025Z,1035.12
2023-02-11T00:30:05.458Z,1035.12
2023-02-11T00:30:35.776Z,1035.18
2023-02-11T00:31:06.576Z,1035.18
2023-02-11T00:31:38.154Z,1034.91
2023-02-11T00:32:08.788Z,1034.91
2023-02-11T00:32:40.161Z,1034.91
2023-02-11T00:33:10.951Z,1034.91
2023-02-11T00:33:42.005Z,1034.71
2023-02-11T00:34:12.581Z,1034.71
2023-02-11T00:34:43.945Z,1035.01
2023-02-11T00:35:17.654Z,1035.01
2023-02-11T00:36:03.167Z,1034.81
2023-02-11T00:36:19.764Z,1034.81
2023-02-11T00:36:47.559Z,1034.81
2023-02-11T00:37:20.206Z,1034.81
2023-02-11T00:37:49.676Z,1034.91
2023-02-11T00:38:20.817Z,1034.91
2023-02-11T00:38:51.836Z,1035.12
2023-02-11T00:39:22.803Z,1035.12
2023-02-11T00:39:53.829Z,1034.91
2023-02-11T00:40:25.471Z,1034.91
2023-02-11T00:40:55.904Z,1035.01
2023-02-11T00:41:26.964Z,1035.01
2023-02-11T00:41:57.897Z,1034.91
2023-02-11T00:42:29.390Z,1034.81
2023-02-11T00:43:00.382Z,1034.81
2023-02-11T00:43:30.567Z,1034.61
2023-02-11T00:44:02.055Z,1034.61
2023-02-11T00:44:32.657Z,1034.91
2023-02-11T00:45:04.631Z,1034.91
2023-02-11T00:45:34.913Z,1034.81
2023-02-11T00:46:06.072Z,1034.81
2023-02-11T00:46:37.124Z,1034.71
2023-02-11T00:47:07.679Z,1034.71
2023-02-11T00:47:38.669Z,1034.81
2023-02-11T00:48:09.992Z,1034.81
2023-02-11T00:48:41.146Z,1034.91
2023-02-11T00:49:11.690Z,1034.91
2023-02-11T00:49:43.055Z,1034.81
2023-02-11T00:50:14.282Z,1034.81
2023-02-11T00:50:45.041Z,1034.61
2023-02-11T00:51:16.292Z,1034.61
2023-02-11T00:51:47.007Z,1034.91
2023-02-11T00:52:17.993Z,1034.91
2023-02-11T00:52:48.969Z,1034.81
2023-02-11T00:53:20.093Z,1034.81
2023-02-11T00:53:50.867Z,1034.91
2023-02-11T00:54:21.713Z,1034.91
2023-02-11T00:54:52.689Z,1034.91
2023-02-11T00:55:24.698Z,1034.91
2023-02-11T00:55:54.635Z,1034.71
2023-02-11T00:56:25.920Z,1034.71
2023-02-11T00:56:56.699Z,1034.81
2023-02-11T00:57:28.536Z,1035.12
2023-02-11T00:57:58.714Z,1035.12
2023-02-11T00:58:30.003Z,1034.91
2023-02-11T00:59:01.008Z,1034.91
2023-02-11T00:59:32.111Z,1034.91
2023-02-11T01:00:03.844Z,1034.91
2023-02-11T01:00:34.162Z,1035.12
2023-02-11T01:01:04.756Z,1035.12
2023-02-11T01:01:35.800Z,1034.71
2023-02-11T01:02:06.704Z,1034.71
2023-02-11T01:02:38.252Z,1035.12
2023-02-11T01:03:09.092Z,1035.12
2023-02-11T01:03:40.243Z,1034.61
2023-02-11T01:04:10.894Z,1034.61
2023-02-11T01:04:41.674Z,1035.01
2023-02-11T01:05:13.602Z,1035.01
2023-02-11T01:05:43.928Z,1035.01
2023-02-11T01:06:15.156Z,1035.01
2023-02-11T01:06:47.898Z,1034.91
2023-02-11T01:07:17.007Z,1034.91
2023-02-11T01:07:49.976Z,1035.01
2023-02-11T01:08:18.650Z,1035.01
2023-02-11T01:08:50.405Z,1035.12
2023-02-11T01:09:20.722Z,1035.12
2023-02-11T01:09:51.751Z,1035.01
2023-02-11T01:10:24.310Z,1035.01
2023-02-11T01:10:53.730Z,1035.12
2023-02-11T01:11:25.176Z,1035.12
2023-02-11T01:11:56.117Z,1035.12
2023-02-11T01:12:27.059Z,1035.12
2023-02-11T01:12:57.796Z,1035.12
2023-02-11T01:13:29.271Z,1035.12
2023-02-11T01:14:00.032Z,1035.12
2023-02-11T01:14:30.749Z,1035.01
2023-02-11T01:15:02.790Z,1035.01
2023-02-11T01:15:33.067Z,1035.12
2023-02-11T01:16:03.948Z,1035.12
2023-02-11T01:16:34.868Z,1035.01
2023-02-11T01:17:06.059Z,1035.01
2023-02-11T01:17:37.210Z,1035.01
2023-02-11T01:18:07.757Z,1035.01
2023-02-11T01:18:39.086Z,1035.12
2023-02-11T01:19:10.022Z,1035.12
2023-02-11T01:19:41.112Z,1035.01
2023-02-11T01:20:12.662Z,1035.01
2023-02-11T01:20:42.716Z,1035.01
2023-02-11T01:21:13.772Z,1035.01
2023-02-11T01:21:45.032Z,1035.12
2023-02-11T01:22:15.734Z,1035.12
2023-02-11T01:22:46.778Z,1034.91
2023-02-11T01:23:17.733Z,1034.91
2023-02-11T01:23:48.945Z,1035.12
2023-02-11T01:24:19.791Z,1035.12
2023-02-11T01:24:50.925Z,1034.91
2023-02-11T01:25:22.413Z,1034.91
2023-02-11T01:25:53.232Z,1034.81
2023-02-11T01:26:24.007Z,1034.81
2023-02-11T01:26:55.126Z,1034.91
2023-02-11T01:27:25.996Z,1034.91
2023-02-11T01:27:56.825Z,1034.81
2023-02-11T01:28:27.973Z,1034.91
2023-02-11T01:28:59.370Z,1034.91
2023-02-11T01:29:29.941Z,1034.91
2023-02-11T01:30:01.582Z,1034.91
2023-02-11T01:30:32.755Z,1035.18
2023-02-11T01:31:03.159Z,1035.18
2023-02-11T01:31:34.178Z,1034.81
2023-02-11T01:32:05.015Z,1034.81
2023-02-11T01:32:36.084Z,1034.71
2023-02-11T01:33:07.181Z,1034.71
2023-02-11T01:33:37.969Z,1034.71
2023-02-11T01:34:08.979Z,1034.71
2023-02-11T01:34:39.929Z,1034.81
2023-02-11T01:35:11.396Z,1034.81
2023-02-11T01:35:42.614Z,1034.61
2023-02-11T01:36:12.755Z,1034.61
2023-02-11T01:36:44.070Z,1035.01
2023-02-11T01:37:14.793Z,1035.01
2023-02-11T01:37:46.033Z,1034.71
2023-02-11T01:38:19.195Z,1034.71
2023-02-11T01:38:47.815Z,1034.91
2023-02-11T01:39:21.095Z,1034.91
2023-02-11T01:39:50.119Z,1034.81
2023-02-11T01:40:22.022Z,1034.81
2023-02-11T01:40:51.814Z,1034.61
2023-02-11T01:41:23.024Z,1034.61
2023-02-11T01:41:53.977Z,1034.51
2023-02-11T01:42:24.744Z,1034.51
2023-02-11T01:42:56.244Z,1034.61
2023-02-11T01:43:26.924Z,1034.61
2023-02-11T01:43:58.234Z,1034.71
2023-02-11T01:44:28.978Z,1034.40
2023-02-11T01:44:59.866Z,1034.40
2023-02-11T01:45:32.159Z,1034.40
2023-02-11T01:46:02.246Z,1034.40
2023-02-11T01:46:32.882Z,1034.61
2023-02-11T01:47:03.833Z,1034.61
2023-02-11T01:47:35.839Z,1034.61
2023-02-11T01:48:05.897Z,1034.61
2023-02-11T01:48:37.328Z,1034.30
2023-02-11T01:49:08.211Z,1034.30
2023-02-11T01:49:39.217Z,1034.40
2023-02-11T01:50:10.483Z,1034.40
2023-02-11T01:50:41.199Z,1034.40
2023-02-11T01:51:11.899Z,1034.40
2023-02-11T01:51:43.296Z,1034.61
2023-02-11T01:52:14.082Z,1034.61
2023-02-11T01:52:44.908Z,1034.30
2023-02-11T01:53:15.892Z,1034.30
2023-02-11T01:53:46.871Z,1034.51
2023-02-11T01:54:18.260Z,1034.51
2023-02-11T01:54:49.192Z,1034.40
2023-02-11T01:55:20.556Z,1034.40
2023-02-11T01:55:51.428Z,1034.40
2023-02-11T01:56:22.120Z,1034.40
2023-02-11T01:56:52.959Z,1034.40
2023-02-11T01:57:23.844Z,1034.40
2023-02-11T01:57:55.348Z,1034.40
2023-02-11T01:58:27.068Z,1034.40
2023-02-11T01:58:57.442Z,1034.40
2023-02-11T01:59:28.361Z,1034.10
2023-02-11T01:59:59.487Z,1034.10
2023-02-11T02:00:31.528Z,1034.10
2023-02-11T02:01:01.041Z,1034.10
2023-02-11T02:01:32.326Z,1034.20
2023-02-11T02:02:03.279Z,1034.20
2023-02-11T02:02:35.025Z,1034.30
2023-02-11T02:03:05.247Z,1034.30
2023-02-11T02:03:35.989Z,1034.30
2023-02-11T02:04:07.759Z,1034.30
2023-02-11T02:04:37.983Z,1034.40
2023-02-11T02:05:09.916Z,1034.40
2023-02-11T02:05:40.772Z,1034.30
2023-02-11T02:06:11.395Z,1034.30
2023-02-11T02:06:42.570Z,1034.20
2023-02-11T02:07:13.539Z,1034.20
2023-02-11T02:07:44.158Z,1034.20
2023-02-11T02:08:14.934Z,1034.20
2023-02-11T02:08:46.351Z,1034.30
2023-02-11T02:09:17.004Z,1034.30
2023-02-11T02:09:50.628Z,1033.90
2023-02-11T02:10:19.924Z,1033.90
2023-02-11T02:10:52.386Z,1034.00
2023-02-11T02:11:21.749Z,1034.00
2023-02-11T02:11:53.633Z,1034.00
2023-02-11T02:12:23.471Z,1034.00
2023-02-11T02:12:55.059Z,1033.90
2023-02-11T02:13:25.396Z,1033.90
2023-02-11T02:13:56.470Z,1034.10
2023-02-11T02:14:26.951Z,1034.10
2023-02-11T02:14:58.541Z,1033.80
2023-02-11T02:15:30.055Z,1033.90
2023-02-11T02:16:00.298Z,1033.90
2023-02-11T02:16:31.425Z,1034.10
2023-02-11T02:17:02.320Z,1034.10
2023-02-11T02:17:33.735Z,1033.90
2023-02-11T02:18:04.311Z,1033.90
2023-02-11T02:18:36.045Z,1033.69
2023-02-11T02:19:06.814Z,1033.69
2023-02-11T02:19:37.497Z,1033.80
2023-02-11T02:20:08.594Z,1033.80
2023-02-11T02:20:38.975Z,1034.10
2023-02-11T02:21:10.404Z,1034.10
2023-02-11T02:21:41.499Z,1033.90
2023-02-11T02:22:11.926Z,1033.90
2023-02-11T02:22:42.999Z,1033.80
2023-02-11T02:23:14.099Z,1033.80
2023-02-11T02:23:45.327Z,1033.90
2023-02-11T02:24:16.420Z,1033.90
2023-02-11T02:24:47.360Z,1033.69
2023-02-11T02:25:19.154Z,1033.69
2023-02-11T02:25:50.025Z,1033.80
2023-02-11T02:26:20.238Z,1033.80
2023-02-11T02:26:51.416Z,1033.90
2023-02-11T02:27:22.040Z,1033.90
2023-02-11T02:27:53.860Z,1033.80
2023-02-11T02:28:24.386Z,1033.80
2023-02-11T02:28:55.022Z,1033.80
2023-02-11T02:29:26.028Z,1033.80
2023-02-11T02:29:57.418Z,1033.80
2023-02-11T02:30:29.166Z,1033.69
2023-02-11T02:30:59.578Z,1033.69
2023-02-11T02:31:30.005Z,1033.80
2023-02-11T02:32:01.061Z,1033.80
2023-02-11T02:32:32.264Z,1033.80
2023-02-11T02:33:13.296Z,1033.80
2023-02-11T02:33:34.285Z,1033.59
2023-02-11T02:34:05.423Z,1033.59
2023-02-11T02:34:37.037Z,1033.90
2023-02-11T02:35:07.374Z,1033.90
2023-02-11T02:35:38.043Z,1033.80
2023-02-11T02:36:09.479Z,1033.80
2023-02-11T02:36:40.343Z,1033.69
2023-02-11T02:37:11.040Z,1033.69
2023-02-11T02:37:42.381Z,1033.59
2023-02-11T02:38:13.286Z,1033.59
2023-02-11T02:38:45.059Z,1033.80
2023-02-11T02:39:15.621Z,1033.80
2023-02-11T02:39:46.386Z,1033.69
2023-02-11T02:40:18.032Z,1033.69
2023-02-11T02:40:48.744Z,1033.69
2023-02-11T02:41:22.314Z,1033.69
2023-02-11T02:41:50.434Z,1033.69
2023-02-11T02:42:23.972Z,1033.69
2023-02-11T02:42:52.557Z,1033.80
2023-02-11T02:43:23.566Z,1033.80
2023-02-11T02:43:54.364Z,1033.90
2023-02-11T02:44:26.060Z,1033.90
2023-02-11T02:44:56.333Z,1033.90
2023-02-11T02:45:28.487Z,1033.90
2023-02-11T02:45:58.179Z,1034.00
2023-02-11T02:46:29.452Z,1034.00
2023-02-11T02:47:00.581Z,1034.00
2023-02-11T02:47:31.348Z,1033.90
2023-02-11T02:48:02.403Z,1033.90
2023-02-11T02:48:33.079Z,1033.90
2023-02-11T02:49:04.508Z,1033.90
2023-02-11T02:49:35.079Z,1033.80
2023-02-11T02:50:06.619Z,1033.80
2023-02-11T02:50:37.053Z,1033.80
2023-02-11T02:51:08.029Z,1033.80
2023-02-11T02:51:39.043Z,1034.00
2023-02-11T02:52:10.278Z,1034.00
2023-02-11T02:52:41.868Z,1034.00
2023-02-11T02:53:12.572Z,1034.00
2023-02-11T02:53:43.749Z,1034.00
2023-02-11T02:54:14.883Z,1034.00
2023-02-11T02:54:45.122Z,1033.90
2023-02-11T02:55:16.880Z,1033.90
2023-02-11T02:55:48.168Z,1033.90
2023-02-11T02:56:18.116Z,1033.90
2023-02-11T02:56:49.256Z,1033.90
2023-02-11T02:57:20.565Z,1033.90
2023-02-11T02:57:51.788Z,1033.80
2023-02-11T02:58:22.089Z,1033.80
2023-02-11T02:58:53.303Z,1033.90
2023-02-11T02:59:24.067Z,1033.90
2023-02-11T02:59:55.085Z,1033.90
2023-02-11T03:00:27.474Z,1033.90
2023-02-11T03:00:57.257Z,1033.90
2023-02-11T03:01:28.221Z,1033.90
2023-02-11T03:01:59.596Z,1033.90
2023-02-11T03:02:30.493Z,1033.90
2023-02-11T03:03:01.201Z,1033.90
2023-02-11T03:03:32.148Z,1034.00
2023-02-11T03:04:03.172Z,1034.00
2023-02-11T03:04:34.120Z,1033.90
2023-02-11T03:05:05.436Z,1033.90
2023-02-11T03:05:36.126Z,1033.90
2023-02-11T03:06:07.264Z,1033.90
2023-02-11T03:06:38.137Z,1034.00
2023-02-11T03:07:09.527Z,1034.00
2023-02-11T03:07:40.512Z,1034.00
2023-02-11T03:08:12.003Z,1034.00
2023-02-11T03:08:42.564Z,1033.90
2023-02-11T03:09:13.076Z,1033.90
2023-02-11T03:09:44.157Z,1033.69
2023-02-11T03:10:15.675Z,1033.69
2023-02-11T03:10:46.086Z,1033.80
2023-02-11T03:11:17.361Z,1033.80
2023-02-11T03:11:48.096Z,1033.59
2023-02-11T03:12:19.440Z,1033.59
2023-02-11T03:12:51.301Z,1033.80
2023-02-11T03:13:21.862Z,1033.80
2023-02-11T03:13:53.271Z,1033.90
2023-02-11T03:14:23.558Z,1033.90
2023-02-11T03:14:54.550Z,1033.80
2023-02-11T03:15:26.382Z,1033.80
2023-02-11T03:15:56.210Z,1033.80
2023-02-11T03:16:27.265Z,1033.80
2023-02-11T03:16:58.480Z,1033.69
2023-02-11T03:17:29.177Z,1033.80
2023-02-11T03:18:00.202Z,1033.80
2023-02-11T03:18:31.756Z,1033.90
2023-02-11T03:19:02.297Z,1033.90
2023-02-11T03:19:33.186Z,1033.90
2023-02-11T03:20:04.664Z,1033.90
2023-02-11T03:20:35.387Z,1034.00
2023-02-11T03:21:06.547Z,1034.00
2023-02-11T03:21:37.160Z,1034.00
2023-02-11T03:22:08.197Z,1034.00
2023-02-11T03:22:39.386Z,1034.00
2023-02-11T03:23:10.271Z,1034.00
2023-02-11T03:23:41.402Z,1033.80
2023-02-11T03:24:12.371Z,1033.80
2023-02-11T03:24:43.392Z,1034.00
2023-02-11T03:25:15.262Z,1034.00
2023-02-11T03:25:45.457Z,1033.90
2023-02-11T03:26:16.177Z,1033.90
2023-02-11T03:26:47.597Z,1033.69
2023-02-11T03:27:18.376Z,1033.69
2023-02-11T03:27:49.181Z,1033.80
2023-02-11T03:28:20.273Z,1033.80
2023-02-11T03:28:51.781Z,1033.90
2023-02-11T03:29:22.197Z,1033.90
2023-02-11T03:29:53.316Z,1033.90
2023-02-11T03:30:25.361Z,1033.90
2023-02-11T03:30:55.689Z,1033.69
2023-02-11T03:31:26.337Z,1033.69
2023-02-11T03:31:57.305Z,1033.69
2023-02-11T03:32:28.524Z,1033.80
2023-02-11T03:32:59.428Z,1033.80
2023-02-11T03:33:30.547Z,1033.69
2023-02-11T03:34:01.534Z,1033.69
2023-02-11T03:34:32.239Z,1033.59
2023-02-11T03:35:03.483Z,1033.59
2023-02-11T03:35:34.311Z,1033.59
2023-02-11T03:36:05.525Z,1033.59
2023-02-11T03:36:36.306Z,1033.69
2023-02-11T03:37:07.223Z,1033.69
2023-02-11T03:37:38.521Z,1033.90
2023-02-11T03:38:09.547Z,1033.90
2023-02-11T03:38:40.506Z,1033.80
2023-02-11T03:39:11.528Z,1033.80
2023-02-11T03:39:42.461Z,1033.59
2023-02-11T03:40:14.209Z,1033.59
2023-02-11T03:40:44.506Z,1033.59
2023-02-11T03:41:15.452Z,1033.59
2023-02-11T03:41:46.624Z,1033.59
2023-02-11T03:42:18.140Z,1033.59
2023-02-11T03:42:48.590Z,1033.49
2023-02-11T03:43:19.931Z,1033.49
2023-02-11T03:43:50.406Z,1033.59
2023-02-11T03:44:22.629Z,1033.59
2023-02-11T03:44:52.366Z,1033.59
2023-02-11T03:45:25.001Z,1033.59
2023-02-11T03:45:54.680Z,1033.80
2023-02-11T03:46:25.272Z,1033.80
2023-02-11T03:46:56.273Z,1033.49
2023-02-11T03:47:27.272Z,1033.49
2023-02-11T03:47:58.553Z,1033.49
2023-02-11T03:48:29.286Z,1033.80
2023-02-11T03:49:00.597Z,1033.80
2023-02-11T03:49:31.623Z,1033.49
2023-02-11T03:50:03.006Z,1033.49
2023-02-11T03:50:33.699Z,1033.59
2023-02-11T03:51:04.547Z,1033.59
2023-02-11T03:51:35.661Z,1033.49
2023-02-11T03:52:06.685Z,1033.49
2023-02-11T03:52:37.645Z,1033.80
2023-02-11T03:53:08.713Z,1033.80
2023-02-11T03:53:39.297Z,1033.59
2023-02-11T03:54:10.263Z,1033.59
2023-02-11T03:54:41.604Z,1033.59
2023-02-11T03:55:12.823Z,1033.59
2023-02-11T03:55:43.314Z,1033.59
2023-02-11T03:56:14.318Z,1033.59
2023-02-11T03:56:45.619Z,1033.59
2023-02-11T03:57:16.646Z,1033.59
2023-02-11T03:57:47.930Z,1033.80
2023-02-11T03:58:18.536Z,1033.80
2023-02-11T03:58:49.512Z,1033.59
2023-02-11T03:59:20.568Z,1033.59
2023-02-11T03:59:51.637Z,1033.69
2023-02-11T04:00:23.994Z,1033.69
2023-02-11T04:00:53.440Z,1033.59
2023-02-11T04:01:24.536Z,1033.59
2023-02-11T04:01:55.725Z,1033.80
2023-02-11T04:02:26.920Z,1033.80
2023-02-11T04:02:57.820Z,1033.49
2023-02-11T04:03:28.735Z,1033.59
2023-02-11T04:03:59.330Z,1033.59
2023-02-11T04:04:30.733Z,1033.49
2023-02-11T04:05:01.597Z,1033.49
2023-02-11T04:05:32.476Z,1033.69
2023-02-11T04:06:03.404Z,1033.69
2023-02-11T04:06:34.648Z,1033.59
2023-02-11T04:07:05.691Z,1033.59
2023-02-11T04:07:36.694Z,1033.69
2023-02-11T04:08:07.381Z,1033.69
2023-02-11T04:08:38.658Z,1033.59
2023-02-11T04:09:09.367Z,1033.59
2023-02-11T04:09:40.498Z,1033.80
2023-02-11T04:10:12.294Z,1033.80
2023-02-11T04:10:42.695Z,1033.39
2023-02-11T04:11:13.697Z,1033.39
2023-02-11T04:11:44.384Z,1033.59
2023-02-11T04:12:15.392Z,1033.59
2023-02-11T04:12:46.368Z,1033.59
2023-02-11T04:13:17.769Z,1033.59
2023-02-11T04:13:48.942Z,1033.80
2023-02-11T04:14:19.608Z,1033.80
2023-02-11T04:14:50.779Z,1033.80
2023-02-11T04:15:22.727Z,1033.80
2023-02-11T04:15:53.912Z,1034.00
2023-02-11T04:16:23.501Z,1034.00
2023-02-11T04:16:55.996Z,1033.80
2023-02-11T04:17:25.744Z,1033.80
2023-02-11T04:17:56.489Z,1034.00
2023-02-11T04:18:27.823Z,1034.00
2023-02-11T04:18:58.647Z,1033.90
2023-02-11T04:19:29.400Z,1034.00
2023-02-11T04:20:01.044Z,1034.00
2023-02-11T04:20:31.422Z,1033.90
2023-02-11T04:21:02.390Z,1033.90
2023-02-11T04:21:33.667Z,1034.10
2023-02-11T04:22:04.881Z,1034.10
2023-02-11T04:22:35.371Z,1034.10
2023-02-11T04:23:06.622Z,1034.10
2023-02-11T04:23:37.734Z,1034.20
2023-02-11T04:24:08.631Z,1034.20
2023-02-11T04:24:39.378Z,1034.00
2023-02-11T04:25:10.992Z,1034.00
2023-02-11T04:25:41.797Z,1033.90
2023-02-11T04:26:12.624Z,1033.90
2023-02-11T04:26:43.727Z,1034.40
2023-02-11T04:27:14.673Z,1034.40
2023-02-11T04:27:45.423Z,1034.10
2023-02-11T04:28:16.507Z,1034.10
2023-02-11T04:28:47.840Z,1034.20
2023-02-11T04:29:18.827Z,1034.20
2023-02-11T04:29:49.427Z,1034.10
2023-02-11T04:30:22.339Z,1034.10
2023-02-11T04:30:51.648Z,1034.20
2023-02-11T04:31:22.595Z,1034.20
2023-02-11T04:31:53.589Z,1034.10
2023-02-11T04:32:24.835Z,1034.10
2023-02-11T04:32:55.678Z,1034.00
2023-02-11T04:33:26.458Z,1034.00
2023-02-11T04:33:58.024Z,1034.00
2023-02-11T04:34:28.762Z,1033.80
2023-02-11T04:34:59.739Z,1033.80
2023-02-11T04:35:31.388Z,1034.20
2023-02-11T04:36:01.785Z,1034.20
2023-02-11T04:36:32.408Z,1034.10
2023-02-11T04:37:03.475Z,1034.10
2023-02-11T04:37:34.666Z,1034.00
2023-02-11T04:38:05.726Z,1034.00
2023-02-11T04:38:36.422Z,1034.10
2023-02-11T04:39:07.680Z,1034.10
2023-02-11T04:39:38.859Z,1034.10
2023-02-11T04:40:10.559Z,1034.10
2023-02-11T04:40:40.470Z,1034.20
2023-02-11T04:41:11.833Z,1034.20
2023-02-11T04:41:42.477Z,1034.10
2023-02-11T04:42:13.406Z,1034.10
2023-02-11T04:42:44.437Z,1033.90
2023-02-11T04:43:15.739Z,1033.90
2023-02-11T04:43:46.473Z,1034.10
2023-02-11T04:44:18.084Z,1034.10
2023-02-11T04:44:48.885Z,1034.20
2023-02-11T04:45:20.815Z,1034.20
2023-02-11T04:45:51.157Z,1034.10
2023-02-11T04:46:21.626Z,1034.10
2023-02-11T04:46:52.634Z,1034.20
2023-02-11T04:47:25.586Z,1034.20
2023-02-11T04:47:54.838Z,1034.20
2023-02-11T04:48:26.970Z,1034.20
2023-02-11T04:48:56.498Z,1034.10
2023-02-11T04:49:28.479Z,1034.10
2023-02-11T04:49:58.722Z,1034.30
2023-02-11T04:50:30.234Z,1034.30
2023-02-11T04:51:00.621Z,1034.30
2023-02-11T04:51:31.540Z,1034.10
2023-02-11T04:52:02.852Z,1034.10
2023-02-11T04:52:33.901Z,1034.20
2023-02-11T04:53:04.998Z,1034.20
2023-02-11T04:53:36.493Z,1034.40
2023-02-11T04:54:07.095Z,1034.40
2023-02-11T04:54:38.237Z,1033.90
2023-02-11T04:55:09.164Z,1033.90
2023-02-11T04:55:39.517Z,1034.00
2023-02-11T04:56:10.531Z,1034.00
2023-02-11T04:56:41.507Z,1033.90
2023-02-11T04:57:12.525Z,1033.90
2023-02-11T04:57:43.530Z,1034.10
2023-02-11T04:58:14.899Z,1034.10
2023-02-11T04:58:45.518Z,1033.90
2023-02-11T04:59:16.771Z,1033.90
2023-02-11T04:59:47.973Z,1034.00
2023-02-11T05:00:20.142Z,1034.00
2023-02-11T05:00:49.611Z,1034.10
2023-02-11T05:01:20.594Z,1034.10
2023-02-11T05:01:51.922Z,1034.10
2023-02-11T05:02:22.818Z,1034.10
2023-02-11T05:02:53.523Z,1033.90
2023-02-11T05:03:24.693Z,1033.90
2023-02-11T05:03:55.627Z,1034.10
2023-02-11T05:04:26.611Z,1034.10
2023-02-11T05:04:58.558Z,1034.20
2023-02-11T05:05:29.429Z,1034.10
2023-02-11T05:05:59.969Z,1034.10
2023-02-11T05:06:30.583Z,1034.00
2023-02-11T05:07:01.943Z,1034.00
2023-02-11T05:07:32.943Z,1034.20
2023-02-11T05:08:03.513Z,1034.20
2023-02-11T05:08:34.674Z,1034.00
2023-02-11T05:09:05.564Z,1034.00
2023-02-11T05:09:36.916Z,1034.00
2023-02-11T05:10:08.344Z,1034.00
2023-02-11T05:10:38.901Z,1034.00
2023-02-11T05:11:09.937Z,1034.00
2023-02-11T05:11:40.498Z,1033.90
2023-02-11T05:12:11.878Z,1033.90
2023-02-11T05:12:42.677Z,1034.10
2023-02-11T05:13:13.536Z,1034.10
2023-02-11T05:13:44.860Z,1034.20
2023-02-11T05:14:15.846Z,1034.20
2023-02-11T05:14:46.732Z,1034.10
2023-02-11T05:15:18.531Z,1034.10
2023-02-11T05:15:49.186Z,1034.00
2023-02-11T05:16:19.663Z,1034.00
2023-02-11T05:16:50.931Z,1033.90
2023-02-11T05:17:21.997Z,1033.90
2023-02-11T05:17:53.057Z,1034.20
2023-02-11T05:18:23.957Z,1034.20
2023-02-11T05:18:55.801Z,1034.00
2023-02-11T05:19:25.964Z,1034.00
2023-02-11T05:19:57.911Z,1034.00
2023-02-11T05:20:28.553Z,1034.00
2023-02-11T05:20:58.927Z,1034.20
2023-02-11T05:21:30.162Z,1034.20
2023-02-11T05:22:03.446Z,1034.20
2023-02-11T05:22:32.023Z,1033.90
2023-02-11T05:23:03.178Z,1033.90
2023-02-11T05:23:33.817Z,1033.90
2023-02-11T05:24:04.588Z,1033.90
2023-02-11T05:24:35.572Z,1033.90
2023-02-11T05:25:06.936Z,1033.90
2023-02-11T05:25:37.996Z,1034.00
2023-02-11T05:26:08.624Z,1034.00
2023-02-11T05:26:39.602Z,1033.90
2023-02-11T05:27:10.619Z,1033.90
2023-02-11T05:27:41.620Z,1034.00
2023-02-11T05:28:13.350Z,1034.00
2023-02-11T05:28:43.922Z,1033.90
2023-02-11T05:29:14.593Z,1033.90
2023-02-11T05:29:46.528Z,1033.69
2023-02-11T05:30:17.846Z,1033.69
2023-02-11T05:30:47.711Z,1033.90
2023-02-11T05:31:18.950Z,1033.90
2023-02-11T05:31:49.958Z,1033.90
2023-02-11T05:32:20.795Z,1033.90
2023-02-11T05:32:52.011Z,1033.90
2023-02-11T05:33:23.533Z,1033.90
2023-02-11T05:33:53.644Z,1033.69
2023-02-11T05:34:24.992Z,1033.69
2023-02-11T05:34:56.017Z,1034.00
2023-02-11T05:35:27.544Z,1034.00
2023-02-11T05:35:57.649Z,1033.90
2023-02-11T05:36:28.688Z,1033.80
2023-02-11T05:36:59.881Z,1033.80
2023-02-11T05:37:30.683Z,1034.00
2023-02-11T05:38:02.112Z,1034.00
2023-02-11T05:38:33.232Z,1033.80
2023-02-11T05:39:04.082Z,1033.80
2023-02-11T05:39:35.049Z,1033.69
2023-02-11T05:40:06.177Z,1033.69
2023-02-11T05:40:36.694Z,1033.90
2023-02-11T05:41:07.699Z,1033.90
2023-02-11T05:41:38.613Z,1033.80
2023-02-11T05:42:10.060Z,1033.80
2023-02-11T05:42:40.911Z,1033.69
2023-02-11T05:43:11.869Z,1033.69
2023-02-11T05:43:43.570Z,1033.80
2023-02-11T05:44:13.860Z,1033.80
2023-02-11T05:44:44.798Z,1033.80
2023-02-11T05:45:17.198Z,1033.80
2023-02-11T05:45:47.134Z,1033.80
2023-02-11T05:46:18.160Z,1033.80
2023-02-11T05:46:48.687Z,1033.80
2023-02-11T05:47:19.752Z,1033.80
2023-02-11T05:47:51.035Z,1033.49
2023-02-11T05:48:22.054Z,1033.49
2023-02-11T05:48:53.446Z,1033.59
2023-02-11T05:49:24.026Z,1033.59
2023-02-11T05:49:55.103Z,1033.59
2023-02-11T05:50:27.200Z,1033.59
2023-02-11T05:50:56.654Z,1033.69
2023-02-11T05:51:28.654Z,1033.69
2023-02-11T05:51:58.713Z,1033.59
2023-02-11T05:52:30.058Z,1033.69
2023-02-11T05:53:01.017Z,1033.69
2023-02-11T05:53:32.352Z,1033.49
2023-02-11T05:54:03.296Z,1033.49
2023-02-11T05:54:34.102Z,1033.59
2023-02-11T05:55:05.145Z,1033.59
2023-02-11T05:55:36.126Z,1033.29
2023-02-11T05:56:06.983Z,1033.29
2023-02-11T05:56:37.730Z,1033.29
2023-02-11T05:57:08.986Z,1033.29
2023-02-11T05:57:39.748Z,1033.49
2023-02-11T05:58:11.090Z,1033.49
2023-02-11T05:58:42.105Z,1033.19
2023-02-11T05:59:13.248Z,1033.19
2023-02-11T05:59:44.117Z,1033.29
2023-02-11T06:00:15.974Z,1033.29
2023-02-11T06:00:46.017Z,1033.08
2023-02-11T06:01:16.667Z,1033.08
2023-02-11T06:01:47.642Z,1033.29
2023-02-11T06:02:18.794Z,1033.29
2023-02-11T06:02:50.205Z,1033.49
2023-02-11T06:03:21.174Z,1033.49
2023-02-11T06:03:51.983Z,1033.59
2023-02-11T06:04:23.164Z,1033.59
2023-02-11T06:04:54.387Z,1033.49
2023-02-11T06:05:25.724Z,1033.49
2023-02-11T06:05:56.133Z,1033.49
2023-02-11T06:06:27.411Z,1033.49
2023-02-11T06:06:58.154Z,1033.59
2023-02-11T06:07:29.118Z,1033.59
2023-02-11T06:08:00.092Z,1033.59
2023-02-11T06:08:31.122Z,1033.39
2023-02-11T06:09:02.128Z,1033.39
2023-02-11T06:09:33.315Z,1033.69
2023-02-11T06:10:04.341Z,1033.69
2023-02-11T06:10:35.153Z,1033.49
2023-02-11T06:11:05.896Z,1033.49
2023-02-11T06:11:37.370Z,1033.49
2023-02-11T06:12:08.484Z,1033.49
2023-02-11T06:12:39.000Z,1033.49
2023-02-11T06:13:10.126Z,1033.49
2023-02-11T06:13:40.900Z,1033.49
2023-02-11T06:14:11.937Z,1033.49
2023-02-11T06:14:43.143Z,1033.69